Time;durP1;ratioP1;P1;durP2;ratioP2;P2;SDS_P1;SDS_P2;PMS_P1;PMS_P2;Temp;Humidity;BMP_temperature;BMP_pressure;BME280_temperature;BME280_humidity;BME280_pressure;Samples;Min_cycle;Max_cycle;Signal;HPM_P1;HPM_P2
2023/01/04 00:01:42;;;;;;;9.00;6.05;;;2.50;99.90;;;;;;5102611;27;20487;-75
2023/01/04 00:04:08;;;;;;;10.07;6.18;;;2.50;99.90;;;;;;5112917;27;20039;-74
2023/01/04 00:06:34;;;;;;;17.00;8.18;;;2.60;99.90;;;;;;5101470;27;20767;-75
2023/01/04 00:09:00;;;;;;;11.13;7.03;;;2.60;99.90;;;;;;5102600;27;20071;-75
2023/01/04 00:11:26;;;;;;;12.13;6.47;;;2.70;99.90;;;;;;5107505;27;20035;-75
2023/01/04 00:13:57;;;;;;;11.57;6.03;;;2.80;99.90;;;;;;5109362;27;20036;-74
2023/01/04 00:16:25;;;;;;;10.75;6.35;;;2.80;99.90;;;;;;5105223;27;20097;-74
2023/01/04 00:18:51;;;;;;;11.80;6.30;;;2.80;99.90;;;;;;5108198;27;20659;-75
2023/01/04 00:21:20;;;;;;;11.90;6.10;;;2.90;99.90;;;;;;5109670;27;20347;-76
2023/01/04 00:23:48;;;;;;;11.45;6.45;;;2.90;99.90;;;;;;5106018;27;20036;-75
2023/01/04 00:26:16;;;;;;;16.02;6.85;;;2.90;99.90;;;;;;5107004;27;20034;-75
2023/01/04 00:28:42;;;;;;;22.90;7.75;;;2.90;99.90;;;;;;5108361;27;20046;-74
2023/01/04 00:31:12;;;;;;;22.90;6.05;;;3.00;99.90;;;;;;5108238;27;20040;-75
2023/01/04 00:33:38;;;;;;;12.15;5.07;;;3.00;99.90;;;;;;5107050;27;20084;-75
2023/01/04 00:36:22;;;;;;;19.55;5.47;;;3.10;99.90;;;;;;5107514;27;20094;-74
2023/01/04 00:39:05;;;;;;;30.30;9.32;;;3.10;99.90;;;;;;5109967;27;20035;-74
2023/01/04 00:41:47;;;;;;;13.20;6.22;;;3.10;99.90;;;;;;5106308;27;20066;-74
2023/01/04 00:44:13;;;;;;;11.35;6.22;;;3.20;99.90;;;;;;5111525;27;20666;-74
2023/01/04 00:46:40;;;;;;;13.35;7.03;;;3.20;99.90;;;;;;5109007;27;20019;-73
2023/01/04 00:49:08;;;;;;;33.42;7.93;;;3.30;99.90;;;;;;5103619;27;20051;-74
2023/01/04 00:51:35;;;;;;;11.37;6.70;;;3.30;99.90;;;;;;5110249;27;20043;-74
2023/01/04 00:54:04;;;;;;;10.88;6.25;;;3.30;99.90;;;;;;5106743;27;20269;-74
2023/01/04 00:56:31;;;;;;;10.63;6.18;;;3.30;99.90;;;;;;5105888;27;20053;-74
2023/01/04 00:58:58;;;;;;;13.57;7.63;;;3.30;99.90;;;;;;5111152;27;20039;-74
2023/01/04 01:01:25;;;;;;;10.30;6.22;;;3.30;99.90;;;;;;5108257;27;20071;-74
2023/01/04 01:03:55;;;;;;;12.02;7.20;;;3.30;99.90;;;;;;5104507;27;20043;-74
2023/01/04 01:06:21;;;;;;;12.93;6.85;;;3.30;99.90;;;;;;5105276;27;20032;-74
2023/01/04 01:08:47;;;;;;;10.43;6.25;;;3.40;99.90;;;;;;5102589;28;20012;-73
2023/01/04 01:11:13;;;;;;;17.33;8.75;;;3.40;99.90;;;;;;5110716;28;20468;-74
2023/01/04 01:13:39;;;;;;;13.02;7.22;;;3.40;99.90;;;;;;5110130;27;20108;-74
2023/01/04 01:16:07;;;;;;;18.08;7.32;;;3.50;99.90;;;;;;5109344;27;20056;-74
2023/01/04 01:18:34;;;;;;;14.25;6.78;;;3.50;99.90;;;;;;5107484;28;20028;-74
2023/01/04 01:21:04;;;;;;;12.38;7.03;;;3.50;99.90;;;;;;5108078;27;20043;-75
2023/01/04 01:23:29;;;;;;;12.18;6.63;;;3.50;99.90;;;;;;5104455;28;20036;-74
2023/01/04 01:26:03;;;;;;;14.00;6.97;;;3.50;99.90;;;;;;5110900;28;20024;-74
2023/01/04 01:28:29;;;;;;;9.00;5.38;;;3.60;99.90;;;;;;5109140;28;20048;-74
2023/01/04 01:30:55;;;;;;;8.30;6.18;;;3.60;99.90;;;;;;5114083;27;20043;-74
2023/01/04 01:33:20;;;;;;;12.23;6.22;;;3.60;99.90;;;;;;5113183;27;20055;-74
2023/01/04 01:35:46;;;;;;;11.05;6.85;;;3.50;99.90;;;;;;5108182;27;20016;-74
2023/01/04 01:38:11;;;;;;;13.25;7.45;;;3.50;99.90;;;;;;5116168;27;21519;-74
2023/01/04 01:40:41;;;;;;;11.60;6.13;;;3.60;99.90;;;;;;5113162;27;20035;-74
2023/01/04 01:43:22;;;;;;;10.27;5.80;;;3.60;99.90;;;;;;5111739;27;20109;-74
2023/01/04 01:45:52;;;;;;;12.30;7.38;;;3.60;99.90;;;;;;5110738;27;20039;-74
2023/01/04 01:48:26;;;;;;;12.98;6.82;;;3.60;99.90;;;;;;5121011;27;20038;-74
2023/01/04 01:50:57;;;;;;;10.63;6.32;;;3.60;99.90;;;;;;5105511;27;20522;-74
2023/01/04 01:53:25;;;;;;;11.55;6.85;;;3.60;99.90;;;;;;5114920;27;20040;-74
2023/01/04 01:55:51;;;;;;;17.43;7.60;;;3.60;99.90;;;;;;5122445;27;20055;-74
2023/01/04 01:58:24;;;;;;;14.13;6.05;;;3.60;99.90;;;;;;5114394;28;20266;-74
2023/01/04 02:00:50;;;;;;;12.10;7.07;;;3.60;99.90;;;;;;5117370;27;20047;-74
2023/01/04 02:03:19;;;;;;;15.82;7.28;;;3.70;99.90;;;;;;5112148;27;20524;-74
2023/01/04 02:05:50;;;;;;;13.30;7.60;;;3.60;99.90;;;;;;5114213;27;20377;-74
2023/01/04 02:08:16;;;;;;;35.97;15.77;;;3.60;99.90;;;;;;5111940;27;20036;-74
2023/01/04 02:10:42;;;;;;;10.00;6.93;;;3.60;99.90;;;;;;5109973;27;20161;-73
2023/01/04 02:13:15;;;;;;;12.98;6.28;;;3.60;99.90;;;;;;5110598;27;20090;-74
2023/01/04 02:16:16;;;;;;;9.65;5.97;;;3.50;99.90;;;;;;5112065;27;20376;-74
2023/01/04 02:19:00;;;;;;;13.38;6.68;;;3.50;99.90;;;;;;5110475;27;20039;-74
2023/01/04 02:22:09;;;;;;;10.38;4.90;;;3.40;99.90;;;;;;5110855;27;20036;-74
2023/01/04 02:24:56;;;;;;;8.00;4.97;;;3.30;99.90;;;;;;5109158;27;20040;-74
2023/01/04 02:27:52;;;;;;;12.30;6.43;;;3.30;99.90;;;;;;5111217;27;20036;-75
2023/01/04 02:30:42;;;;;;;14.73;6.13;;;3.20;99.90;;;;;;5113790;27;20119;-74
2023/01/04 02:33:27;;;;;;;38.72;6.68;;;3.10;99.90;;;;;;5110817;27;20109;-74
2023/01/04 02:36:06;;;;;;;36.45;8.35;;;3.00;99.90;;;;;;5106139;27;20028;-74
2023/01/04 02:38:58;;;;;;;10.43;6.47;;;2.90;99.90;;;;;;5105629;27;20032;-74
2023/01/04 02:41:40;;;;;;;9.57;5.65;;;3.00;99.90;;;;;;5107819;27;20583;-73
2023/01/04 02:50:29;;;;;;;8.82;5.43;;;3.00;99.90;;;;;;5111810;27;20402;-74
2023/01/04 02:50:30;;;;;;;8.43;4.53;;;3.10;99.90;;;;;;5115030;27;20073;-75
2023/01/04 02:53:00;;;;;;;8.80;5.07;;;3.10;99.90;;;;;;5109846;27;20220;-74
2023/01/04 02:55:47;;;;;;;8.98;5.53;;;3.10;99.90;;;;;;5107797;27;20028;-74
2023/01/04 02:58:54;;;;;;;8.98;5.38;;;3.20;99.90;;;;;;5107964;27;20100;-74
2023/01/04 03:07:23;;;;;;;9.13;5.22;;;3.10;99.90;;;;;;5111574;27;20039;-74
2023/01/04 03:09:55;;;;;;;8.32;4.40;;;3.10;99.90;;;;;;5110749;27;20035;-74
2023/01/04 03:12:31;;;;;;;6.85;4.88;;;3.10;99.90;;;;;;5110529;27;20187;-74
2023/01/04 03:15:00;;;;;;;9.38;5.53;;;3.10;99.90;;;;;;5111751;27;20030;-74
2023/01/04 03:17:30;;;;;;;10.02;5.78;;;3.20;99.90;;;;;;5103681;27;20032;-74
2023/01/04 03:19:58;;;;;;;9.40;5.07;;;3.20;99.90;;;;;;5107960;27;20449;-74
2023/01/04 03:37:09;;;;;;;6.45;3.33;;;3.00;99.90;;;;;;5107156;27;20476;-74
2023/01/04 03:49:27;;;;;;;6.20;3.83;;;3.00;99.90;;;;;;5112142;27;20046;-74
2023/01/04 03:51:57;;;;;;;6.88;4.45;;;2.90;99.90;;;;;;5111619;27;22345;-74
2023/01/04 03:54:28;;;;;;;7.18;4.35;;;2.90;99.90;;;;;;5110343;27;20066;-74
2023/01/04 03:56:55;;;;;;;6.65;4.65;;;3.00;99.90;;;;;;5110743;27;20064;-74
2023/01/04 03:59:22;;;;;;;10.38;4.85;;;3.10;99.90;;;;;;5106810;27;20031;-74
2023/01/04 04:01:48;;;;;;;7.38;4.55;;;3.10;99.90;;;;;;5102070;27;20043;-74
2023/01/04 04:09:42;;;;;;;10.30;5.85;;;3.20;99.90;;;;;;5107156;27;20501;-74
2023/01/04 04:12:07;;;;;;;8.23;4.78;;;3.20;99.90;;;;;;5103097;27;20092;-74
2023/01/04 04:14:33;;;;;;;10.43;6.07;;;3.30;99.90;;;;;;5109021;27;20131;-74
2023/01/04 04:16:59;;;;;;;10.35;5.13;;;3.40;99.90;;;;;;5106758;27;20036;-74
2023/01/04 04:19:24;;;;;;;9.55;5.80;;;3.50;99.90;;;;;;5109059;27;20076;-74
2023/01/04 04:21:50;;;;;;;12.57;5.75;;;3.50;99.90;;;;;;5106050;27;20043;-73
2023/01/04 04:24:20;;;;;;;12.20;5.95;;;3.60;99.90;;;;;;5105802;27;20028;-74
2023/01/04 04:26:46;;;;;;;9.52;4.90;;;3.60;99.90;;;;;;5108668;27;20145;-75
2023/01/04 04:29:11;;;;;;;9.15;5.45;;;3.70;99.90;;;;;;5105601;27;20134;-74
2023/01/04 04:31:37;;;;;;;14.85;7.07;;;3.70;99.90;;;;;;5108611;27;20051;-75
2023/01/04 04:34:02;;;;;;;13.32;6.63;;;3.70;99.90;;;;;;5112283;27;20032;-74
2023/01/04 04:36:28;;;;;;;10.98;6.55;;;3.80;99.90;;;;;;5107749;27;20031;-74
2023/01/04 04:38:53;;;;;;;11.60;5.78;;;3.80;99.90;;;;;;5108037;27;20028;-74
2023/01/04 04:41:38;;;;;;;13.20;7.05;;;3.80;99.90;;;;;;5105101;27;20116;-74
2023/01/04 04:44:09;;;;;;;10.40;5.95;;;3.80;99.90;;;;;;5104643;27;20038;-74
2023/01/04 04:46:35;;;;;;;11.50;5.40;;;3.90;99.90;;;;;;5105465;27;20073;-74
2023/01/04 04:49:02;;;;;;;12.13;5.78;;;3.90;99.90;;;;;;5107403;27;20112;-74
2023/01/04 04:51:27;;;;;;;10.85;5.95;;;4.00;99.90;;;;;;5106536;27;20039;-74
2023/01/04 04:53:53;;;;;;;10.77;5.88;;;4.00;99.90;;;;;;5108730;27;20031;-74
2023/01/04 04:56:19;;;;;;;12.80;6.15;;;4.00;99.90;;;;;;5111208;27;20498;-74
2023/01/04 04:58:44;;;;;;;10.75;5.38;;;4.00;99.90;;;;;;5108236;28;20507;-74
2023/01/04 05:01:10;;;;;;;12.82;5.78;;;4.10;99.90;;;;;;5108976;28;20135;-74
2023/01/04 05:03:35;;;;;;;13.13;5.43;;;4.10;99.90;;;;;;5113422;27;20449;-74
2023/01/04 05:06:01;;;;;;;18.02;7.65;;;4.10;99.90;;;;;;5104582;27;20031;-75
2023/01/04 05:08:27;;;;;;;11.68;6.32;;;4.20;99.90;;;;;;5113642;28;20077;-74
2023/01/04 05:10:53;;;;;;;11.73;5.72;;;4.20;99.90;;;;;;5116665;28;20058;-74
2023/01/04 05:13:18;;;;;;;10.23;6.10;;;4.10;99.90;;;;;;5105685;28;20043;-73
2023/01/04 05:15:46;;;;;;;11.25;5.43;;;4.10;99.90;;;;;;5113202;27;20024;-74
2023/01/04 05:18:15;;;;;;;13.38;5.80;;;4.10;99.90;;;;;;5111553;27;20031;-75
2023/01/04 05:20:41;;;;;;;8.20;4.90;;;4.00;99.90;;;;;;5105891;28;20040;-74
2023/01/04 05:23:07;;;;;;;13.18;6.30;;;4.00;99.90;;;;;;5105335;28;20016;-74
2023/01/04 05:25:33;;;;;;;11.45;5.95;;;4.00;99.90;;;;;;5102766;28;20032;-74
2023/01/04 05:27:59;;;;;;;12.98;6.30;;;3.90;99.90;;;;;;5115105;28;20032;-74
2023/01/04 05:33:09;;;;;;;10.48;5.47;;;4.00;99.90;;;;;;5105309;28;20078;-75
2023/01/04 05:35:35;;;;;;;11.60;5.80;;;4.00;99.90;;;;;;5108192;28;20051;-76
2023/01/04 05:38:00;;;;;;;10.50;5.68;;;4.00;99.90;;;;;;5103848;28;20026;-74
2023/01/04 05:40:26;;;;;;;11.75;5.90;;;4.00;99.90;;;;;;5106887;28;20036;-75
2023/01/04 05:42:52;;;;;;;11.75;5.93;;;4.00;99.90;;;;;;5108052;28;20672;-75
2023/01/04 05:45:21;;;;;;;11.13;5.43;;;4.00;99.90;;;;;;5109744;28;20085;-75
2023/01/04 05:47:51;;;;;;;11.10;5.30;;;4.00;99.90;;;;;;5106355;28;20027;-75
2023/01/04 05:50:17;;;;;;;12.88;6.15;;;4.00;99.90;;;;;;5110645;28;20039;-75
2023/01/04 05:52:43;;;;;;;15.45;6.47;;;4.10;99.90;;;;;;5107921;28;20032;-75
2023/01/04 05:55:09;;;;;;;12.80;6.85;;;4.10;99.90;;;;;;5095250;27;20129;-75
2023/01/04 05:57:35;;;;;;;14.63;5.97;;;4.10;99.90;;;;;;5086200;28;20028;-75
2023/01/04 06:00:01;;;;;;;9.50;5.38;;;4.10;99.90;;;;;;5084526;28;20097;-75
2023/01/04 06:02:30;;;;;;;11.15;5.50;;;4.10;99.90;;;;;;5082367;28;20063;-75
2023/01/04 06:04:56;;;;;;;13.30;5.90;;;4.20;99.90;;;;;;5083170;28;20066;-75
2023/01/04 06:07:21;;;;;;;11.50;5.72;;;4.20;99.90;;;;;;5086280;28;20518;-76
2023/01/04 06:09:47;;;;;;;10.07;4.28;;;4.20;99.90;;;;;;5085407;28;20472;-75
2023/01/04 06:12:13;;;;;;;10.18;5.80;;;4.30;99.90;;;;;;5086470;28;20032;-75
2023/01/04 06:14:39;;;;;;;9.55;4.63;;;4.40;99.90;;;;;;5082964;28;21076;-75
2023/01/04 06:17:05;;;;;;;11.20;5.05;;;4.50;99.90;;;;;;5084471;28;20035;-75
2023/01/04 06:19:30;;;;;;;11.40;5.78;;;4.50;99.90;;;;;;5092270;27;20057;-75
2023/01/04 06:21:56;;;;;;;8.38;4.22;;;4.50;99.90;;;;;;5086633;27;20051;-74
2023/01/04 06:24:22;;;;;;;6.70;3.05;;;4.50;99.90;;;;;;5087673;27;20032;-75
2023/01/04 06:26:48;;;;;;;10.10;5.18;;;4.50;99.90;;;;;;5103298;27;20130;-75
2023/01/04 06:29:13;;;;;;;9.82;4.15;;;4.60;99.90;;;;;;5089853;28;20050;-74
2023/01/04 06:31:39;;;;;;;11.38;5.15;;;4.50;99.90;;;;;;5088652;27;20134;-75
2023/01/04 06:34:05;;;;;;;9.15;4.47;;;4.40;99.90;;;;;;5088493;27;20743;-77
2023/01/04 06:36:30;;;;;;;9.90;5.30;;;4.40;99.90;;;;;;5092811;27;20217;-75
2023/01/04 06:38:59;;;;;;;14.13;6.35;;;4.40;99.90;;;;;;5086922;27;20028;-74
2023/01/04 06:41:26;;;;;;;7.13;4.25;;;4.30;99.90;;;;;;5086867;27;20051;-75
2023/01/04 06:43:51;;;;;;;10.57;5.00;;;4.30;99.90;;;;;;5085560;27;20054;-75
2023/01/04 06:46:18;;;;;;;9.80;5.30;;;4.30;99.90;;;;;;5085759;27;20031;-75
2023/01/04 06:48:43;;;;;;;10.32;4.85;;;4.30;99.90;;;;;;5089032;27;20051;-74
2023/01/04 06:51:09;;;;;;;14.18;6.25;;;4.20;99.90;;;;;;5085172;27;20115;-75
2023/01/04 06:53:34;;;;;;;11.63;5.28;;;4.30;99.90;;;;;;5090518;27;20038;-75
2023/01/04 06:56:00;;;;;;;9.60;5.10;;;4.20;99.90;;;;;;5088455;27;20530;-74
2023/01/04 06:58:26;;;;;;;12.32;5.57;;;4.20;99.90;;;;;;5087948;27;20046;-75
2023/01/04 07:00:52;;;;;;;10.98;5.60;;;4.10;99.90;;;;;;5096630;27;20051;-75
2023/01/04 07:03:18;;;;;;;11.85;5.63;;;4.10;99.90;;;;;;5090628;27;20044;-75
2023/01/04 07:05:44;;;;;;;17.80;8.00;;;4.10;99.90;;;;;;5085361;28;20044;-75
2023/01/04 07:08:10;;;;;;;9.73;4.93;;;4.10;99.90;;;;;;5088370;27;20038;-75
2023/01/04 07:10:36;;;;;;;9.07;5.32;;;4.20;99.90;;;;;;5095847;28;20149;-75
2023/01/04 07:13:01;;;;;;;8.73;4.57;;;4.20;99.90;;;;;;5092833;27;20958;-75
2023/01/04 07:15:27;;;;;;;8.23;4.03;;;4.20;99.90;;;;;;5105369;28;20027;-75
2023/01/04 07:17:53;;;;;;;10.85;5.28;;;4.20;99.90;;;;;;5105090;27;20422;-75
2023/01/04 07:20:19;;;;;;;10.20;5.53;;;4.10;99.90;;;;;;5113103;27;20028;-75
2023/01/04 07:22:44;;;;;;;9.38;4.43;;;4.10;99.90;;;;;;5096857;28;20043;-75
2023/01/04 07:25:10;;;;;;;7.25;4.43;;;4.10;99.90;;;;;;5090144;27;20032;-75
2023/01/04 07:27:35;;;;;;;9.63;5.07;;;4.10;99.90;;;;;;5086725;28;20027;-75
2023/01/04 07:30:01;;;;;;;10.35;4.82;;;4.10;99.90;;;;;;5085964;27;20040;-75
2023/01/04 07:32:26;;;;;;;8.80;4.40;;;4.10;99.90;;;;;;5103710;27;20055;-75
2023/01/04 07:34:52;;;;;;;8.95;4.78;;;4.10;99.90;;;;;;5087782;28;20097;-74
2023/01/04 07:37:18;;;;;;;10.52;4.43;;;4.10;99.90;;;;;;5086005;27;20032;-74
2023/01/04 07:39:43;;;;;;;9.27;4.40;;;4.20;99.90;;;;;;5089068;28;20096;-74
2023/01/04 07:42:10;;;;;;;6.22;3.33;;;4.20;99.90;;;;;;5084885;28;20092;-75
2023/01/04 07:44:36;;;;;;;8.32;4.57;;;4.40;99.90;;;;;;5088320;28;20143;-75
2023/01/04 07:47:02;;;;;;;8.98;5.00;;;4.40;99.90;;;;;;5094739;28;20110;-75
2023/01/04 07:49:27;;;;;;;9.77;4.85;;;4.40;99.90;;;;;;5111394;27;20055;-75
2023/01/04 07:51:53;;;;;;;3.80;2.65;;;4.50;99.90;;;;;;5112260;27;20591;-75
2023/01/04 07:54:19;;;;;;;6.22;3.95;;;4.70;99.90;;;;;;5112681;27;20105;-75
2023/01/04 07:56:46;;;;;;;5.40;2.58;;;4.80;99.90;;;;;;5109898;27;20535;-75
2023/01/04 07:59:14;;;;;;;6.60;3.88;;;4.90;99.90;;;;;;5110604;27;20035;-74
2023/01/04 08:01:40;;;;;;;9.80;5.33;;;5.00;99.90;;;;;;5107734;27;20056;-75
2023/01/04 08:04:07;;;;;;;5.18;3.40;;;5.00;99.90;;;;;;5111372;27;20825;-74
2023/01/04 08:06:33;;;;;;;9.10;4.82;;;5.10;99.90;;;;;;5110469;27;20122;-75
2023/01/04 08:08:59;;;;;;;5.82;3.90;;;5.10;99.90;;;;;;5110942;27;20042;-75
2023/01/04 08:11:26;;;;;;;8.85;5.05;;;5.20;99.90;;;;;;5106534;27;20035;-74
2023/01/04 08:13:51;;;;;;;8.05;3.95;;;5.30;99.90;;;;;;5114547;27;20032;-75
2023/01/04 08:16:20;;;;;;;4.30;3.53;;;5.40;99.90;;;;;;5109706;28;20036;-75
2023/01/04 08:18:46;;;;;;;8.77;4.15;;;5.40;99.90;;;;;;5104436;27;20058;-74
2023/01/04 08:21:12;;;;;;;5.95;4.85;;;5.40;99.90;;;;;;5112249;27;20028;-75
2023/01/04 08:23:37;;;;;;;6.80;4.53;;;5.50;99.90;;;;;;5115942;27;20028;-74
2023/01/04 08:26:09;;;;;;;5.65;4.07;;;5.50;99.90;;;;;;5109069;27;20032;-75
2023/01/04 08:28:35;;;;;;;5.78;3.58;;;5.60;99.90;;;;;;5108209;28;20083;-74
2023/01/04 08:31:10;;;;;;;7.50;3.75;;;5.60;99.90;;;;;;5114025;27;20043;-75
2023/01/04 08:33:38;;;;;;;5.72;3.25;;;5.70;99.90;;;;;;5107364;28;20036;-75
2023/01/04 08:36:15;;;;;;;5.85;4.05;;;5.80;99.90;;;;;;5114293;27;20091;-75
2023/01/04 08:38:41;;;;;;;6.93;4.23;;;5.90;99.90;;;;;;5112043;27;20097;-74
2023/01/04 08:41:06;;;;;;;5.10;3.03;;;6.00;99.90;;;;;;5106521;28;20032;-75
2023/01/04 08:43:32;;;;;;;6.75;3.75;;;6.10;99.90;;;;;;5109763;28;20081;-75
2023/01/04 08:45:58;;;;;;;5.82;3.90;;;6.20;99.90;;;;;;5109440;27;20034;-75
2023/01/04 08:48:24;;;;;;;4.13;2.35;;;6.40;99.90;;;;;;5111212;27;20024;-75
2023/01/04 08:50:49;;;;;;;5.32;3.70;;;6.40;99.90;;;;;;5109752;27;20085;-75
2023/01/04 08:53:15;;;;;;;4.47;3.20;;;6.50;99.90;;;;;;5106871;27;20078;-75
2023/01/04 08:55:47;;;;;;;6.07;3.53;;;6.50;99.90;;;;;;5103468;28;20039;-75
2023/01/04 08:58:12;;;;;;;7.88;4.43;;;6.60;99.90;;;;;;5104202;28;20042;-75
2023/01/04 09:00:38;;;;;;;5.20;3.97;;;6.70;99.90;;;;;;5110950;27;20040;-75
2023/01/04 09:03:04;;;;;;;6.97;4.53;;;6.70;99.90;;;;;;5109211;27;20048;-75
2023/01/04 09:05:31;;;;;;;3.38;2.95;;;6.80;99.90;;;;;;5111481;27;20024;-75
2023/01/04 09:07:59;;;;;;;3.78;2.50;;;6.80;99.90;;;;;;5108049;28;20032;-74
2023/01/04 09:10:25;;;;;;;3.55;2.97;;;6.80;99.90;;;;;;5101924;28;20065;-75
2023/01/04 09:12:51;;;;;;;5.10;3.38;;;6.80;99.90;;;;;;5107920;27;20042;-75
2023/01/04 09:15:17;;;;;;;2.53;1.98;;;6.90;99.90;;;;;;5107182;28;20039;-75
2023/01/04 09:17:43;;;;;;;6.00;3.65;;;6.90;99.90;;;;;;5115549;28;20043;-74
2023/01/04 09:20:08;;;;;;;4.43;2.70;;;7.00;99.90;;;;;;5112127;27;20054;-75
2023/01/04 09:22:34;;;;;;;2.67;2.25;;;7.00;99.90;;;;;;5101734;28;20032;-75
2023/01/04 09:25:00;;;;;;;2.72;2.38;;;7.00;99.90;;;;;;5110973;28;20037;-75
2023/01/04 09:27:25;;;;;;;4.43;2.83;;;7.10;99.90;;;;;;5109600;28;20460;-75
2023/01/04 09:29:51;;;;;;;3.90;2.60;;;7.10;99.90;;;;;;5112976;28;20079;-75
2023/01/04 09:32:17;;;;;;;3.50;2.70;;;7.10;99.90;;;;;;5115677;28;20055;-76
2023/01/04 09:34:43;;;;;;;3.72;2.85;;;7.20;99.90;;;;;;5108124;28;20043;-74
2023/01/04 09:37:08;;;;;;;3.92;2.97;;;7.20;99.90;;;;;;5108671;28;20082;-75
2023/01/04 09:39:34;;;;;;;3.85;3.10;;;7.20;99.90;;;;;;5111850;28;20028;-75
2023/01/04 09:42:02;;;;;;;2.70;2.30;;;7.20;99.90;;;;;;5116626;28;20498;-75
2023/01/04 09:44:31;;;;;;;;;;;7.20;99.90;;;;;;5110669;28;20031;-75
2023/01/04 09:47:25;;;;;;;1.48;1.27;;;7.20;99.90;;;;;;5107291;28;19919;-75
2023/01/04 09:50:02;;;;;;;2.55;2.30;;;7.20;99.90;;;;;;5112110;28;20092;-76
2023/01/04 09:52:44;;;;;;;2.38;2.13;;;7.20;99.90;;;;;;5114979;27;20088;-76
2023/01/04 09:55:35;;;;;;;2.83;2.50;;;7.30;99.90;;;;;;5108413;27;20038;-76
2023/01/04 09:58:35;;;;;;;2.25;2.03;;;7.30;99.90;;;;;;5111979;27;20023;-76
2023/01/04 10:01:16;;;;;;;3.58;2.80;;;7.30;99.90;;;;;;5063996;27;20119;-75
2023/01/04 10:04:07;;;;;;;3.90;2.13;;;7.40;99.90;;;;;;5114941;27;20035;-75
2023/01/04 10:06:35;;;;;;;2.78;1.88;;;7.40;99.90;;;;;;5074660;27;20482;-75
2023/01/04 10:09:05;;;;;;;2.03;1.85;;;7.40;99.90;;;;;;5115021;28;20093;-75
2023/01/04 10:12:15;;;;;;;3.35;2.22;;;7.50;99.90;;;;;;5112886;27;20036;-75
2023/01/04 10:15:04;;;;;;;2.17;1.67;;;7.50;99.90;;;;;;5106085;28;20028;-75
2023/01/04 10:17:48;;;;;;;2.28;1.67;;;7.50;99.90;;;;;;5111522;27;20110;-74
2023/01/04 10:20:53;;;;;;;1.58;1.33;;;7.50;99.90;;;;;;5115010;27;20040;-75
2023/01/04 10:23:50;;;;;;;2.47;1.95;;;7.60;99.90;;;;;;5103318;27;20035;-75
2023/01/04 10:26:23;;;;;;;2.67;2.33;;;7.50;99.90;;;;;;5105488;27;20057;-75
2023/01/04 10:28:54;;;;;;;1.70;1.60;;;7.50;99.90;;;;;;5116457;27;20050;-74
2023/01/04 10:31:32;;;;;;;4.45;1.85;;;7.60;99.90;;;;;;5115379;27;21926;-73
2023/01/04 10:34:12;;;;;;;2.60;1.40;;;7.50;99.90;;;;;;5114714;27;20024;-75
2023/01/04 10:36:37;;;;;;;2.28;2.00;;;7.50;99.90;;;;;;5110433;27;20020;-75
2023/01/04 10:39:18;;;;;;;1.80;1.50;;;7.60;99.90;;;;;;5113509;27;20039;-75
2023/01/04 10:41:52;;;;;;;2.03;1.70;;;7.60;99.90;;;;;;5106777;27;20032;-75
2023/01/04 10:44:46;;;;;;;1.10;1.08;;;7.60;99.90;;;;;;5117512;27;20856;-75
2023/01/04 10:47:41;;;;;;;1.80;1.67;;;7.60;99.90;;;;;;5120527;27;20128;-75
2023/01/04 10:50:16;;;;;;;1.23;1.13;;;7.60;99.90;;;;;;5110215;27;20125;-74
2023/01/04 10:52:56;;;;;;;2.05;1.80;;;7.60;99.90;;;;;;5116870;27;20032;-75
2023/01/04 10:55:32;;;;;;;3.20;1.42;;;7.60;99.90;;;;;;5112772;27;20039;-74
2023/01/04 10:58:09;;;;;;;2.38;1.63;;;7.60;99.90;;;;;;5108504;27;20027;-75
2023/01/04 11:01:01;;;;;;;1.60;1.48;;;7.70;99.90;;;;;;5110730;28;20044;-75
2023/01/04 11:03:46;;;;;;;1.30;1.20;;;7.70;99.90;;;;;;5105819;27;20028;-75
2023/01/04 11:06:42;;;;;;;1.88;1.60;;;7.70;99.90;;;;;;5107951;27;20129;-75
2023/01/04 11:09:19;;;;;;;2.47;2.20;;;7.70;99.90;;;;;;5046124;28;20091;-75
2023/01/04 11:11:46;;;;;;;1.73;1.63;;;7.70;99.90;;;;;;5111176;27;20480;-75
2023/01/04 11:14:12;;;;;;;1.67;1.58;;;7.80;99.90;;;;;;5108068;28;20029;-75
2023/01/04 11:16:41;;;;;;;1.58;1.40;;;7.80;99.90;;;;;;5115556;27;20096;-74
2023/01/04 11:19:09;;;;;;;1.65;1.55;;;7.80;99.90;;;;;;5112950;27;20044;-75
2023/01/04 11:21:48;;;;;;;1.30;1.23;;;7.80;99.90;;;;;;5111067;28;20066;-76
2023/01/04 11:24:16;;;;;;;2.13;1.65;;;7.80;99.90;;;;;;5103421;27;20043;-74
2023/01/04 11:26:44;;;;;;;1.73;1.60;;;7.90;99.90;;;;;;5110011;27;20027;-75
2023/01/04 11:29:44;;;;;;;2.15;1.60;;;7.90;99.90;;;;;;5109370;27;20032;-76
2023/01/04 11:32:18;;;;;;;1.20;1.10;;;7.90;99.90;;;;;;5103812;27;20056;-75
2023/01/04 11:34:50;;;;;;;1.38;1.30;;;7.90;99.90;;;;;;5111251;27;20064;-75
2023/01/04 11:37:42;;;;;;;1.40;1.30;;;7.90;99.90;;;;;;5111355;27;20035;-75
2023/01/04 11:40:17;;;;;;;3.22;1.95;;;7.90;99.90;;;;;;5105707;28;20044;-75
2023/01/04 11:42:51;;;;;;;1.70;1.52;;;7.90;99.90;;;;;;5114381;27;20046;-75
2023/01/04 11:45:25;;;;;;;1.13;1.05;;;7.80;99.90;;;;;;5109351;27;20096;-75
2023/01/04 11:47:56;;;;;;;1.60;1.50;;;7.90;99.90;;;;;;5112223;27;20116;-74
2023/01/04 11:50:34;;;;;;;1.13;1.13;;;7.80;99.90;;;;;;5119713;27;20031;-74
2023/01/04 11:52:59;;;;;;;1.63;1.35;;;7.80;99.90;;;;;;5112881;27;20070;-75
2023/01/04 11:55:28;;;;;;;1.20;1.10;;;7.80;99.90;;;;;;5117037;27;20043;-75
2023/01/04 11:58:10;;;;;;;1.52;1.42;;;7.80;99.90;;;;;;5110362;27;20073;-74
2023/01/04 12:00:37;;;;;;;1.27;0.80;;;7.90;99.90;;;;;;5110206;27;20082;-75
2023/01/04 12:03:11;;;;;;;1.73;1.63;;;7.90;99.90;;;;;;5114821;27;20024;-75
2023/01/04 12:05:36;;;;;;;2.03;1.60;;;7.90;99.90;;;;;;5116679;27;20090;-74
2023/01/04 12:08:03;;;;;;;2.72;1.52;;;7.90;99.90;;;;;;5112139;27;20028;-75
2023/01/04 12:10:28;;;;;;;1.52;1.42;;;7.90;99.90;;;;;;5115726;27;20479;-75
2023/01/04 12:12:55;;;;;;;1.77;1.63;;;7.90;99.90;;;;;;5113908;28;20035;-74
2023/01/04 12:15:31;;;;;;;1.27;1.25;;;8.00;99.90;;;;;;5116125;27;20074;-75
2023/01/04 12:18:06;;;;;;;1.08;1.00;;;8.00;99.90;;;;;;5108237;27;20095;-75
2023/01/04 12:20:32;;;;;;;1.58;1.48;;;8.00;99.90;;;;;;5112462;28;20592;-75
2023/01/04 12:22:57;;;;;;;3.35;1.63;;;8.10;99.90;;;;;;5107638;28;20032;-75
2023/01/04 12:25:33;;;;;;;1.30;1.20;;;8.10;99.90;;;;;;5105956;27;20035;-75
2023/01/04 12:27:59;;;;;;;2.35;1.98;;;8.10;99.90;;;;;;5111807;27;20031;-75
2023/01/04 12:30:44;;;;;;;1.15;1.02;;;8.10;99.90;;;;;;5109583;27;20551;-75
2023/01/04 12:33:28;;;;;;;1.80;1.70;;;8.10;99.90;;;;;;5110869;27;20047;-74
2023/01/04 12:36:05;;;;;;;1.88;1.40;;;8.10;99.90;;;;;;5121569;27;20024;-74
2023/01/04 12:38:55;;;;;;;3.85;1.42;;;8.20;99.90;;;;;;5106747;27;20039;-74
2023/01/04 12:41:59;;;;;;;1.85;1.67;;;8.30;99.90;;;;;;5100296;28;20112;-75
2023/01/04 12:44:37;;;;;;;1.65;1.17;;;8.30;99.90;;;;;;5095816;27;20035;-75
2023/01/04 12:50:10;;;;;;;2.88;1.80;;;8.40;99.90;;;;;;5109032;27;20398;-75
2023/01/04 12:52:43;;;;;;;1.30;1.20;;;8.40;99.90;;;;;;5116782;27;20158;-75
2023/01/04 12:55:30;;;;;;;1.23;1.20;;;8.50;99.90;;;;;;5115045;27;20031;-75
2023/01/04 12:57:57;;;;;;;2.10;1.30;;;8.60;99.90;;;;;;5109346;27;20032;-74
2023/01/04 13:00:43;;;;;;;1.60;1.50;;;8.60;99.90;;;;;;5102005;27;20048;-75
2023/01/04 13:03:15;;;;;;;1.92;1.75;;;8.60;99.90;;;;;;5117082;27;20039;-75
2023/01/04 13:05:54;;;;;;;1.73;1.60;;;8.70;99.90;;;;;;5113621;27;20057;-75
2023/01/04 13:08:20;;;;;;;2.13;1.25;;;8.70;99.90;;;;;;5120341;27;20038;-75
2023/01/04 13:10:48;;;;;;;1.27;1.20;;;8.80;99.90;;;;;;5113239;27;20024;-75
2023/01/04 13:13:19;;;;;;;1.45;1.33;;;8.80;99.90;;;;;;5109840;27;20119;-75
2023/01/04 13:16:24;;;;;;;1.85;1.70;;;8.70;99.90;;;;;;5114274;28;20023;-75
2023/01/04 13:18:52;;;;;;;2.55;1.63;;;8.70;99.90;;;;;;5109145;27;20028;-76
2023/01/04 13:21:28;;;;;;;2.00;1.77;;;8.80;99.90;;;;;;5107279;28;20550;-75
2023/01/04 13:23:56;;;;;;;2.13;1.50;;;8.80;99.90;;;;;;5111094;28;20044;-75
2023/01/04 13:26:31;;;;;;;1.58;1.38;;;8.80;99.90;;;;;;5110680;28;20841;-76
2023/01/04 13:29:16;;;;;;;2.42;2.22;;;8.80;99.90;;;;;;5107320;28;20084;-76
2023/01/04 13:31:49;;;;;;;1.98;1.77;;;8.80;99.90;;;;;;5106286;28;20069;-76
2023/01/04 13:34:25;;;;;;;1.48;1.38;;;8.90;99.90;;;;;;5118734;28;20023;-75
2023/01/04 13:37:20;;;;;;;3.13;2.05;;;8.90;99.90;;;;;;5112479;28;20020;-76
2023/01/04 13:39:51;;;;;;;1.70;1.60;;;9.00;99.90;;;;;;5102388;28;20047;-75
2023/01/04 13:42:41;;;;;;;2.17;1.58;;;9.00;99.90;;;;;;5112167;28;20080;-75
2023/01/04 13:45:39;;;;;;;1.95;1.65;;;9.00;99.90;;;;;;5114732;28;20054;-76
2023/01/04 13:48:11;;;;;;;1.55;1.45;;;9.00;99.90;;;;;;5110341;28;20105;-76
2023/01/04 13:50:42;;;;;;;1.35;1.25;;;9.00;99.90;;;;;;5109345;28;20118;-74
2023/01/04 13:53:21;;;;;;;1.83;1.73;;;9.00;99.90;;;;;;5109102;28;20024;-76
2023/01/04 13:55:57;;;;;;;1.27;1.17;;;9.00;99.90;;;;;;5113997;28;20556;-76
2023/01/04 13:58:29;;;;;;;1.55;1.45;;;9.00;99.90;;;;;;5112921;28;20613;-75
2023/01/04 14:01:27;;;;;;;1.35;1.25;;;9.00;99.90;;;;;;5111012;27;20123;-76